Aviation Digital Data Service (ADDS)

Output produced by METARs form (0806 UTC 21 September 2018)
found at http://aviationweather.gov/metar/data/
 
KARA 210753Z AUTO 00000KT 10SM CLR 24/23 A2999 RMK AO2 SLP156 T02440228
KARA 210520Z 2106/2206 15004KT P6SM SCT025 
     TEMPO 2109/2113 4SM BR BKN025 
     FM211500 13008KT P6SM VCTS SCT035CB